createdAt,value
2022-09-17T00:00:39.238Z,96520.66
2022-09-17T00:10:24.475Z,96530.50
2022-09-17T00:12:51.405Z,96517.91
2022-09-17T00:19:09.039Z,96519.78
2022-09-17T00:25:38.829Z,96516.13
2022-09-17T00:28:05.447Z,96515.28
2022-09-17T00:30:32.186Z,96519.09
2022-09-17T00:40:32.129Z,96522.44
2022-09-17T00:43:00.336Z,96523.53
2022-09-17T00:49:28.641Z,96541.38
2022-09-17T00:56:01.749Z,96540.31
2022-09-17T00:58:29.935Z,96542.19
2022-09-17T01:04:43.397Z,96553.00
2022-09-17T01:07:32.787Z,96556.31
2022-09-17T01:10:08.026Z,96555.56
2022-09-17T01:20:48.387Z,96546.34
2022-09-17T01:23:36.860Z,96549.72
2022-09-17T01:34:05.188Z,96564.13
2022-09-17T01:43:58.981Z,96547.25
2022-09-17T01:46:41.631Z,96546.63
2022-09-17T01:49:10.690Z,96542.31
2022-09-17T01:55:29.896Z,96543.56
2022-09-17T01:58:01.419Z,96547.22
2022-09-17T02:00:28.122Z,96532.53
2022-09-17T02:06:48.542Z,96542.22
2022-09-17T02:14:04.052Z,96550.44
2022-09-17T02:16:34.335Z,96548.44
2022-09-17T02:19:16.576Z,96551.00
2022-09-17T02:25:57.261Z,96557.81
2022-09-17T02:28:33.636Z,96542.69
2022-09-17T02:34:47.717Z,96544.28
2022-09-17T02:37:14.515Z,96546.31
2022-09-17T02:47:45.146Z,96531.16
2022-09-17T02:50:30.176Z,96524.38
2022-09-17T03:05:05.993Z,96499.41
2022-09-17T03:07:32.756Z,96493.97
2022-09-17T03:09:59.634Z,96485.47
2022-09-17T03:12:26.883Z,96491.16
2022-09-17T03:18:40.172Z,96476.78
2022-09-17T03:25:10.058Z,96501.38
2022-09-17T03:27:36.516Z,96509.38
2022-09-17T03:30:03.727Z,96513.88
2022-09-17T03:38:56.703Z,96539.59
2022-09-17T03:45:25.503Z,96549.25
2022-09-17T03:47:51.994Z,96554.28
2022-09-17T03:55:02.513Z,96543.66
2022-09-17T03:57:29.007Z,96534.50
2022-09-17T04:03:59.496Z,96524.22
2022-09-17T04:06:26.136Z,96536.00
2022-09-17T04:08:54.470Z,96540.25
2022-09-17T04:15:46.520Z,96557.28
2022-09-17T04:18:13.932Z,96543.69
2022-09-17T04:20:40.628Z,96544.84
2022-09-17T04:26:53.808Z,96538.53
2022-09-17T04:29:20.319Z,96536.59
2022-09-17T04:36:00.595Z,96543.09
2022-09-17T04:38:27.099Z,96557.28
2022-09-17T04:45:37.473Z,96554.13
2022-09-17T04:48:04.455Z,96567.56
2022-09-17T04:58:14.949Z,96591.63
2022-09-17T05:00:42.513Z,96591.44
2022-09-17T05:06:58.450Z,96590.25
2022-09-17T05:09:24.982Z,96595.41
2022-09-17T05:11:51.467Z,96594.69
2022-09-17T05:29:25.874Z,96616.50
2022-09-17T05:31:52.350Z,96611.25
2022-09-17T05:38:07.702Z,96637.00
2022-09-17T05:40:34.374Z,96646.75
2022-09-17T06:02:57.836Z,96660.63
2022-09-17T06:05:25.265Z,96656.41
2022-09-17T06:07:52.272Z,96655.66
2022-09-17T06:10:19.021Z,96662.78
2022-09-17T06:12:45.588Z,96659.84
2022-09-17T06:15:14.649Z,96663.72
2022-09-17T06:17:41.862Z,96663.84
2022-09-17T06:20:08.984Z,96660.16
2022-09-17T06:22:37.975Z,96659.22
2022-09-17T06:25:04.977Z,96663.69
2022-09-17T06:27:33.068Z,96664.00
2022-09-17T06:29:59.911Z,96658.84
2022-09-17T06:32:27.117Z,96668.97
2022-09-17T06:34:54.092Z,96667.03
2022-09-17T06:37:20.616Z,96666.63
2022-09-17T06:39:47.574Z,96666.16
2022-09-17T06:42:14.154Z,96663.25
2022-09-17T06:44:40.963Z,96653.81
2022-09-17T06:47:08.047Z,96648.19
2022-09-17T06:49:34.547Z,96652.63
2022-09-17T06:52:01.780Z,96655.72
2022-09-17T06:54:31.229Z,96638.91
2022-09-17T06:56:57.781Z,96638.94
2022-09-17T06:59:24.514Z,96628.34
2022-09-17T07:01:51.499Z,96625.97
2022-09-17T07:04:18.886Z,96630.50
2022-09-17T07:06:45.545Z,96618.44
2022-09-17T07:09:12.356Z,96622.34
2022-09-17T07:11:39.591Z,96613.28
2022-09-17T07:14:06.942Z,96629.00
2022-09-17T07:16:36.018Z,96623.69
2022-09-17T07:19:03.908Z,96639.06
2022-09-17T07:21:30.861Z,96638.19
2022-09-17T07:23:57.615Z,96647.72
2022-09-17T07:26:24.087Z,96657.19
2022-09-17T07:31:27.331Z,96662.16
2022-09-17T07:33:53.878Z,96666.63
2022-09-17T07:36:20.429Z,96677.19
2022-09-17T07:38:47.204Z,96669.75
2022-09-17T07:41:17.107Z,96670.47
2022-09-17T07:43:44.469Z,96676.06
2022-09-17T07:46:19.295Z,96688.84
2022-09-17T07:48:47.505Z,96704.09
2022-09-17T07:51:18.727Z,96731.72
2022-09-17T07:53:45.716Z,96724.06
2022-09-17T07:56:12.311Z,96729.28
2022-09-17T07:58:39.550Z,96720.72
2022-09-17T08:01:08.755Z,96716.06
2022-09-17T08:03:40.008Z,96717.44
2022-09-17T08:06:12.968Z,96708.22
2022-09-17T08:08:40.475Z,96706.03
2022-09-17T08:11:08.486Z,96708.63
2022-09-17T08:13:35.599Z,96712.16
2022-09-17T08:16:05.370Z,96702.25
2022-09-17T08:18:32.379Z,96698.69
2022-09-17T08:21:00.107Z,96704.94
2022-09-17T08:23:27.876Z,96708.78
2022-09-17T08:25:55.862Z,96703.16
2022-09-17T08:28:23.889Z,96710.59
2022-09-17T08:30:50.544Z,96714.53
2022-09-17T08:33:17.878Z,96705.91
2022-09-17T08:35:54.988Z,96697.91
2022-09-17T08:38:22.136Z,96704.25
2022-09-17T08:41:20.368Z,96707.25
2022-09-17T08:44:02.150Z,96716.63
2022-09-17T08:46:40.728Z,96697.16
2022-09-17T08:49:25.193Z,96692.00
2022-09-17T08:51:53.248Z,96689.91
2022-09-17T08:54:28.333Z,96687.63
2022-09-17T08:57:36.953Z,96679.78
2022-09-17T09:00:18.603Z,96677.69
2022-09-17T09:03:07.033Z,96682.06
2022-09-17T09:05:47.699Z,96686.41
2022-09-17T09:08:51.012Z,96698.25
2022-09-17T09:11:27.421Z,96697.66
2022-09-17T09:14:00.490Z,96697.13
2022-09-17T09:16:32.942Z,96693.72
2022-09-17T09:19:13.836Z,96702.78
2022-09-17T09:21:49.089Z,96704.53
2022-09-17T09:24:28.679Z,96711.25
2022-09-17T09:27:06.598Z,96703.63
2022-09-17T09:29:45.470Z,96706.31
2022-09-17T09:32:16.170Z,96704.88
2022-09-17T09:34:45.491Z,96701.53
2022-09-17T09:37:14.492Z,96692.03
2022-09-17T09:39:45.928Z,96689.03
2022-09-17T09:42:28.896Z,96692.94
2022-09-17T09:45:04.272Z,96694.22
2022-09-17T09:47:48.767Z,96698.97
2022-09-17T09:50:42.910Z,96695.38
2022-09-17T09:53:52.831Z,96700.94
2022-09-17T09:56:34.724Z,96701.00
2022-09-17T09:59:01.378Z,96707.28
2022-09-17T10:01:30.239Z,96707.59
2022-09-17T10:03:58.833Z,96704.34
2022-09-17T10:06:29.489Z,96709.03
2022-09-17T10:08:55.952Z,96712.88
2022-09-17T10:11:27.286Z,96715.19
2022-09-17T10:14:13.481Z,96730.06
2022-09-17T10:16:40.060Z,96729.72
2022-09-17T10:19:06.767Z,96722.84
2022-09-17T10:21:39.801Z,96738.25
2022-09-17T10:24:29.511Z,96739.88
2022-09-17T10:27:05.641Z,96737.03
2022-09-17T10:29:33.858Z,96736.34
2022-09-17T10:32:00.861Z,96722.00
2022-09-17T10:34:33.791Z,96725.44
2022-09-17T10:37:00.303Z,96713.84
2022-09-17T10:39:26.685Z,96730.38
2022-09-17T10:41:56.946Z,96724.66
2022-09-17T10:44:25.887Z,96727.31
2022-09-17T10:46:53.466Z,96743.75
2022-09-17T10:49:44.054Z,96738.88
2022-09-17T10:52:43.890Z,96753.56
2022-09-17T10:55:27.753Z,96751.56
2022-09-17T10:58:07.294Z,96763.59
2022-09-17T11:00:36.891Z,96767.81
2022-09-17T11:03:22.295Z,96781.22
2022-09-17T11:06:12.187Z,96778.19
2022-09-17T11:08:46.811Z,96782.25
2022-09-17T11:11:36.825Z,96775.22
2022-09-17T11:14:15.688Z,96771.28
2022-09-17T11:17:08.019Z,96768.66
2022-09-17T11:19:45.573Z,96766.94
2022-09-17T11:22:23.609Z,96758.44
2022-09-17T11:25:27.668Z,96746.28
2022-09-17T11:28:18.388Z,96749.47
2022-09-17T11:31:05.131Z,96748.59
2022-09-17T11:33:40.702Z,96742.78
2022-09-17T11:36:46.089Z,96735.72
2022-09-17T11:39:28.555Z,96738.66
2022-09-17T11:41:58.531Z,96736.44
2022-09-17T11:44:28.106Z,96732.34
2022-09-17T11:47:02.875Z,96735.00
2022-09-17T11:49:42.604Z,96735.75
2022-09-17T11:52:13.829Z,96733.03
2022-09-17T11:54:53.572Z,96731.50
2022-09-17T11:57:22.938Z,96729.03
2022-09-17T11:59:56.617Z,96739.50
2022-09-17T12:02:38.072Z,96727.69
2022-09-17T12:05:29.841Z,96728.56
2022-09-17T12:08:04.673Z,96731.69
2022-09-17T12:10:58.220Z,96733.16
2022-09-17T12:13:24.684Z,96733.69
2022-09-17T12:15:56.980Z,96726.94
2022-09-17T12:18:41.935Z,96725.59
2022-09-17T12:21:13.707Z,96719.44
2022-09-17T12:23:49.894Z,96710.53
2022-09-17T12:26:16.306Z,96712.72
2022-09-17T12:28:59.559Z,96695.41
2022-09-17T12:31:35.744Z,96687.56
2022-09-17T12:34:25.927Z,96681.25
2022-09-17T12:37:13.681Z,96686.22
2022-09-17T12:40:09.892Z,96674.22
2022-09-17T12:42:51.340Z,96665.16
2022-09-17T12:45:35.702Z,96668.84
2022-09-17T12:48:02.342Z,96664.44
2022-09-17T12:50:46.957Z,96657.28
2022-09-17T12:53:41.045Z,96645.38
2022-09-17T12:56:07.663Z,96653.41
2022-09-17T12:58:49.655Z,96640.16
2022-09-17T13:01:36.407Z,96639.56
2022-09-17T13:04:49.871Z,96637.31
2022-09-17T13:07:27.939Z,96631.91
2022-09-17T13:10:21.473Z,96633.81
2022-09-17T13:12:47.869Z,96635.88
2022-09-17T13:15:46.498Z,96633.81
2022-09-17T13:18:26.711Z,96631.56
2022-09-17T13:21:15.188Z,96643.00
2022-09-17T13:23:45.548Z,96632.94
2022-09-17T13:26:19.085Z,96634.34
2022-09-17T13:28:50.747Z,96638.34
2022-09-17T13:31:40.775Z,96632.81
2022-09-17T13:34:19.533Z,96633.91
2022-09-17T13:36:47.524Z,96625.16
2022-09-17T13:39:41.593Z,96628.88
2022-09-17T13:42:28.816Z,96629.63
2022-09-17T13:45:08.752Z,96632.47
2022-09-17T13:47:53.569Z,96629.38
2022-09-17T13:50:26.331Z,96640.53
2022-09-17T13:52:54.842Z,96625.41
2022-09-17T13:55:35.324Z,96634.63
2022-09-17T13:58:11.015Z,96638.78
2022-09-17T14:00:51.140Z,96631.03
2022-09-17T14:03:30.812Z,96625.81
2022-09-17T14:06:22.054Z,96618.91
2022-09-17T14:08:50.632Z,96624.66
2022-09-17T14:11:22.853Z,96627.13
2022-09-17T14:14:18.298Z,96635.59
2022-09-17T14:16:46.298Z,96643.03
2022-09-17T14:19:15.641Z,96644.28
2022-09-17T14:21:57.479Z,96642.28
2022-09-17T14:24:31.241Z,96654.69
2022-09-17T14:27:30.327Z,96649.75
2022-09-17T14:30:16.878Z,96655.66
2022-09-17T14:33:08.059Z,96660.91
2022-09-17T14:35:38.554Z,96653.88
2022-09-17T14:38:20.813Z,96659.56
2022-09-17T14:40:58.017Z,96647.19
2022-09-17T14:43:50.124Z,96642.97
2022-09-17T14:46:30.442Z,96633.44
2022-09-17T14:49:24.052Z,96646.28
2022-09-17T14:52:00.098Z,96643.25
2022-09-17T14:54:27.842Z,96646.88
2022-09-17T14:57:08.708Z,96643.66
2022-09-17T14:59:35.135Z,96655.19
2022-09-17T15:02:01.760Z,96656.38
2022-09-17T15:04:28.694Z,96656.50
2022-09-17T15:07:09.582Z,96647.97
2022-09-17T15:09:36.231Z,96646.09
2022-09-17T15:12:05.024Z,96654.94
2022-09-17T15:14:34.873Z,96651.31
2022-09-17T15:17:03.912Z,96648.88
2022-09-17T15:19:42.903Z,96647.06
2022-09-17T15:22:15.966Z,96643.41
2022-09-17T15:24:55.919Z,96642.94
2022-09-17T15:27:34.081Z,96647.63
2022-09-17T15:30:06.659Z,96655.63
2022-09-17T15:32:33.802Z,96654.47
2022-09-17T15:35:18.558Z,96648.59
2022-09-17T15:38:11.558Z,96658.31
2022-09-17T15:40:39.176Z,96661.41
2022-09-17T15:43:46.102Z,96653.28
2022-09-17T15:46:21.327Z,96657.88
2022-09-17T15:48:47.927Z,96658.41
2022-09-17T15:51:29.078Z,96659.44
2022-09-17T15:53:58.535Z,96671.28
2022-09-17T15:56:29.114Z,96672.44
2022-09-17T15:59:03.537Z,96673.63
2022-09-17T16:01:30.041Z,96677.63
2022-09-17T16:04:08.923Z,96685.47
2022-09-17T16:06:37.047Z,96691.78
2022-09-17T16:09:04.075Z,96696.41
2022-09-17T16:11:32.217Z,96708.03
2022-09-17T16:14:01.089Z,96726.28
2022-09-17T16:16:34.535Z,96727.44
2022-09-17T16:19:01.533Z,96736.47
2022-09-17T16:21:29.027Z,96729.16
2022-09-17T16:23:55.555Z,96730.56
2022-09-17T16:26:25.678Z,96732.38
2022-09-17T16:28:53.862Z,96726.31
2022-09-17T16:31:21.200Z,96724.22
2022-09-17T16:33:47.745Z,96723.00
2022-09-17T16:36:17.202Z,96718.28
2022-09-17T16:38:43.757Z,96721.66
2022-09-17T16:41:10.272Z,96731.94
2022-09-17T16:43:38.343Z,96725.50
2022-09-17T16:46:07.939Z,96730.47
2022-09-17T16:48:34.976Z,96738.84
2022-09-17T16:51:09.765Z,96737.81
2022-09-17T16:53:36.336Z,96734.66
2022-09-17T16:56:10.341Z,96742.41
2022-09-17T16:58:37.670Z,96741.38
2022-09-17T17:01:12.734Z,96742.63
2022-09-17T17:03:39.550Z,96738.09
2022-09-17T17:06:06.804Z,96745.25
2022-09-17T17:08:33.971Z,96741.88
2022-09-17T17:11:01.074Z,96746.06
2022-09-17T17:13:30.387Z,96750.16
2022-09-17T17:15:56.902Z,96754.88
2022-09-17T17:18:24.551Z,96749.19
2022-09-17T17:20:51.088Z,96750.75
2022-09-17T17:23:17.558Z,96759.19
2022-09-17T17:25:44.019Z,96754.97
2022-09-17T17:28:10.982Z,96760.28
2022-09-17T17:30:38.395Z,96774.47
2022-09-17T17:33:05.426Z,96768.47
2022-09-17T17:35:31.984Z,96775.22
2022-09-17T17:37:58.468Z,96775.53
2022-09-17T17:40:25.398Z,96776.56
2022-09-17T17:42:52.423Z,96780.16
2022-09-17T17:45:18.884Z,96791.06
2022-09-17T17:47:45.425Z,96782.25
2022-09-17T17:50:11.930Z,96786.97
2022-09-17T17:52:40.220Z,96796.56
2022-09-17T17:55:07.193Z,96797.50
2022-09-17T17:57:33.681Z,96809.50
2022-09-17T18:00:00.234Z,96814.75
2022-09-17T18:02:26.774Z,96815.13
2022-09-17T18:04:53.372Z,96821.81
2022-09-17T18:07:19.828Z,96825.03
2022-09-17T18:09:47.035Z,96834.31
2022-09-17T18:12:13.731Z,96831.31
2022-09-17T18:14:40.230Z,96828.09
2022-09-17T18:17:06.713Z,96828.47
2022-09-17T18:19:33.276Z,96838.50
2022-09-17T18:21:59.737Z,96838.03
2022-09-17T18:24:26.255Z,96844.56
2022-09-17T18:26:52.715Z,96849.81
2022-09-17T18:29:19.266Z,96844.78
2022-09-17T18:31:45.874Z,96853.22
2022-09-17T18:34:15.912Z,96861.44
2022-09-17T18:36:47.582Z,96868.94
2022-09-17T18:39:55.694Z,96869.03
2022-09-17T18:42:04.072Z,96868.56
2022-09-17T18:44:30.554Z,96875.41
2022-09-17T18:46:57.090Z,96875.00
2022-09-17T18:49:23.713Z,96878.03
2022-09-17T18:51:50.258Z,96874.19
2022-09-17T18:54:16.734Z,96881.38
2022-09-17T18:56:43.395Z,96878.88
2022-09-17T18:59:10.395Z,96882.03
2022-09-17T19:01:37.341Z,96883.31
2022-09-17T19:04:04.235Z,96887.16
2022-09-17T19:06:32.326Z,96884.53
2022-09-17T19:09:01.147Z,96882.03
2022-09-17T19:11:28.093Z,96885.47
2022-09-17T19:13:55.032Z,96891.66
2022-09-17T19:16:22.475Z,96891.38
2022-09-17T19:18:49.093Z,96881.16
2022-09-17T19:21:17.930Z,96872.00
2022-09-17T19:23:49.974Z,96870.06
2022-09-17T19:26:22.124Z,96870.63
2022-09-17T19:28:52.473Z,96877.00
2022-09-17T19:31:19.233Z,96877.44
2022-09-17T19:33:46.693Z,96869.66
2022-09-17T19:36:15.713Z,96868.72
2022-09-17T19:38:42.710Z,96870.88
2022-09-17T19:41:17.549Z,96873.28
2022-09-17T19:43:45.207Z,96872.09
2022-09-17T19:46:14.794Z,96867.34
2022-09-17T19:48:52.211Z,96867.38
2022-09-17T19:51:19.745Z,96867.09
2022-09-17T19:53:46.423Z,96868.53
2022-09-17T19:56:14.523Z,96862.63
2022-09-17T19:58:41.823Z,96861.69
2022-09-17T20:01:08.948Z,96865.00
2022-09-17T20:03:35.663Z,96877.72
2022-09-17T20:06:04.379Z,96868.91
2022-09-17T20:08:31.273Z,96891.34
2022-09-17T20:11:04.601Z,96888.16
2022-09-17T20:13:31.498Z,96880.28
2022-09-17T20:16:13.507Z,96880.75
2022-09-17T20:18:40.654Z,96879.16
2022-09-17T20:21:12.251Z,96873.91
2022-09-17T20:23:38.871Z,96864.34
2022-09-17T20:26:06.349Z,96869.59
2022-09-17T20:28:33.831Z,96861.00
2022-09-17T20:31:18.800Z,96868.44
2022-09-17T20:33:46.566Z,96866.16
2022-09-17T20:36:15.557Z,96869.53
2022-09-17T20:41:29.029Z,96876.44
2022-09-17T20:43:55.685Z,96874.03
2022-09-17T20:46:28.310Z,96870.56
2022-09-17T20:48:57.558Z,96868.97
2022-09-17T20:51:28.990Z,96862.59
2022-09-17T20:53:57.361Z,96866.72
2022-09-17T20:56:31.349Z,96862.38
2022-09-17T20:59:07.689Z,96876.16
2022-09-17T21:01:35.730Z,96872.44
2022-09-17T21:04:03.896Z,96885.09
2022-09-17T21:06:33.919Z,96880.53
2022-09-17T21:09:00.768Z,96873.69
2022-09-17T21:11:29.104Z,96868.38
2022-09-17T21:13:55.618Z,96868.09
2022-09-17T21:16:22.246Z,96871.91
2022-09-17T21:18:48.986Z,96874.72
2022-09-17T21:21:17.944Z,96874.53
2022-09-17T21:23:44.517Z,96875.66
2022-09-17T21:26:15.147Z,96881.25
2022-09-17T21:28:43.638Z,96869.28
2022-09-17T21:31:17.652Z,96873.34
2022-09-17T21:33:45.671Z,96865.66
2022-09-17T21:36:18.067Z,96872.03
2022-09-17T21:38:44.872Z,96874.63
2022-09-17T21:41:14.507Z,96868.63
2022-09-17T21:43:41.808Z,96868.00
2022-09-17T21:46:16.950Z,96870.88
2022-09-17T21:48:46.035Z,96875.88
2022-09-17T21:51:21.189Z,96870.31
2022-09-17T21:53:52.342Z,96868.16
2022-09-17T21:56:20.032Z,96883.06
2022-09-17T21:58:51.004Z,96879.28
2022-09-17T22:01:20.265Z,96876.00
2022-09-17T22:03:47.159Z,96875.09
2022-09-17T22:06:16.535Z,96876.78
2022-09-17T22:08:43.189Z,96870.66
2022-09-17T22:11:12.750Z,96868.91
2022-09-17T22:13:40.058Z,96870.78
2022-09-17T22:16:08.825Z,96867.31
2022-09-17T22:18:37.473Z,96873.84
2022-09-17T22:21:17.559Z,96870.78
2022-09-17T22:23:44.067Z,96871.31
2022-09-17T22:26:11.172Z,96867.53
2022-09-17T22:28:38.084Z,96863.47
2022-09-17T22:31:07.372Z,96863.69
2022-09-17T22:33:36.358Z,96857.69
2022-09-17T22:36:09.091Z,96855.47
2022-09-17T22:38:36.472Z,96851.34
2022-09-17T22:41:07.003Z,96856.09
2022-09-17T22:43:33.802Z,96854.25
2022-09-17T22:46:00.965Z,96847.41
2022-09-17T22:48:27.621Z,96850.13
2022-09-17T22:50:54.061Z,96856.41
2022-09-17T22:53:20.575Z,96862.88
2022-09-17T22:55:55.116Z,96850.69
2022-09-17T22:58:24.187Z,96848.44
2022-09-17T23:00:52.573Z,96851.03
2022-09-17T23:03:19.287Z,96846.66
2022-09-17T23:05:45.855Z,96849.91
2022-09-17T23:08:13.780Z,96855.34
2022-09-17T23:10:41.827Z,96857.22
2022-09-17T23:13:09.502Z,96856.56
2022-09-17T23:15:37.654Z,96855.22
2022-09-17T23:18:05.026Z,96859.22
2022-09-17T23:20:32.633Z,96861.19
2022-09-17T23:23:00.011Z,96860.41
2022-09-17T23:25:30.057Z,96857.25
2022-09-17T23:27:57.059Z,96867.03
2022-09-17T23:30:25.260Z,96870.78
2022-09-17T23:32:55.738Z,96868.41
2022-09-17T23:35:23.281Z,96869.81
2022-09-17T23:37:50.420Z,96873.38
2022-09-17T23:40:18.382Z,96878.00
2022-09-17T23:42:44.955Z,96880.34
2022-09-17T23:45:11.523Z,96884.34
2022-09-17T23:47:38.073Z,96887.41
2022-09-17T23:50:05.015Z,96883.19
2022-09-17T23:52:31.492Z,96888.91
2022-09-17T23:54:58.679Z,96897.69
2022-09-17T23:57:25.662Z,96902.81
2022-09-17T23:59:52.228Z,96900.72
